KSLK/SLK METAR and TAF weather

Enter ICAO airport designator
Station Type Date Time Source
KSLK METAR 2019/10/15 07:51 UTC NOAA

KSLK 150751Z AUTO 24005KT 10SM CLR 02/00 A3004 RMK AO2 SLP184 T00220000


Station Type Date Time Source
KSLK Decoded METAR 2019/10/15 07:51 UTC NOAA

ADIRONDACK REGIONAL AIRPORT, NY, United States (KSLK) 44-24N 074-12W 498M
Oct 15, 2019 - 03:51 AM EDT / 2019.10.15 0751 UTC
Wind: from the WSW (240 degrees) at 6 MPH (5 KT):0
Visibility: 10 mile(s):0
Sky conditions: clear
Temperature: 36.0 F (2.2 C)
Dew Point: 32.0 F (0.0 C)
Relative Humidity: 85%
Pressure (altimeter): 30.04 in. Hg (1017 hPa)
ob: KSLK 150751Z AUTO 24005KT 10SM CLR 02/00 A3004 RMK AO2 SLP184 T00220000
cycle: 8

Station Type Date Time Source
KSLK TAF 2019/10/15 06:24 UTC NOAA

TAF KSLK 150522Z 1506/1606 23004KT P6SM SCT050
TEMPO 1508/1512 2SM BR

Example: see airport list